sensor_id;sensor_type;location;lat;lon;timestamp;temperature;humidity
580;DHT22;276;48.392;9.950;2023-05-07T00:00:10;16.50;99.90
580;DHT22;276;48.392;9.950;2023-05-07T00:02:37;16.50;99.90
580;DHT22;276;48.392;9.950;2023-05-07T00:05:03;16.50;99.90
580;DHT22;276;48.392;9.950;2023-05-07T00:07:29;16.50;99.90
580;DHT22;276;48.392;9.950;2023-05-07T00:09:57;16.60;99.90
580;DHT22;276;48.392;9.950;2023-05-07T00:12:25;16.50;99.90
580;DHT22;276;48.392;9.950;2023-05-07T00:14:50;16.50;99.90
580;DHT22;276;48.392;9.950;2023-05-07T00:17:16;16.40;99.90
580;DHT22;276;48.392;9.950;2023-05-07T00:19:41;16.40;99.90
580;DHT22;276;48.392;9.950;2023-05-07T00:22:09;16.40;99.90
580;DHT22;276;48.392;9.950;2023-05-07T00:24:37;16.30;99.90
580;DHT22;276;48.392;9.950;2023-05-07T00:27:03;16.30;99.90
580;DHT22;276;48.392;9.950;2023-05-07T00:29:28;16.30;99.90
580;DHT22;276;48.392;9.950;2023-05-07T00:31:54;16.20;99.90
580;DHT22;276;48.392;9.950;2023-05-07T00:34:20;16.20;99.90
580;DHT22;276;48.392;9.950;2023-05-07T00:36:45;16.20;99.90
580;DHT22;276;48.392;9.950;2023-05-07T00:39:11;16.20;99.90
580;DHT22;276;48.392;9.950;2023-05-07T00:41:36;16.20;99.90
580;DHT22;276;48.392;9.950;2023-05-07T00:44:02;16.20;99.90
580;DHT22;276;48.392;9.950;2023-05-07T00:46:28;16.20;99.90
580;DHT22;276;48.392;9.950;2023-05-07T00:48:55;16.10;99.90
580;DHT22;276;48.392;9.950;2023-05-07T00:51:26;16.10;99.90
580;DHT22;276;48.392;9.950;2023-05-07T00:53:53;16.10;99.90
580;DHT22;276;48.392;9.950;2023-05-07T00:56:23;16.10;99.90
580;DHT22;276;48.392;9.950;2023-05-07T00:58:51;16.10;99.90
580;DHT22;276;48.392;9.950;2023-05-07T01:01:16;16.10;99.90
580;DHT22;276;48.392;9.950;2023-05-07T01:03:42;16.10;99.90
580;DHT22;276;48.392;9.950;2023-05-07T01:06:09;16.10;99.90
580;DHT22;276;48.392;9.950;2023-05-07T01:08:35;16.00;99.90
580;DHT22;276;48.392;9.950;2023-05-07T01:11:05;16.00;99.90
580;DHT22;276;48.392;9.950;2023-05-07T01:13:32;16.00;99.90
580;DHT22;276;48.392;9.950;2023-05-07T01:16:01;16.00;99.90
580;DHT22;276;48.392;9.950;2023-05-07T01:18:26;16.00;99.90
580;DHT22;276;48.392;9.950;2023-05-07T01:20:54;16.00;99.90
580;DHT22;276;48.392;9.950;2023-05-07T01:23:21;15.90;99.90
580;DHT22;276;48.392;9.950;2023-05-07T01:25:55;15.90;99.90
580;DHT22;276;48.392;9.950;2023-05-07T01:28:20;15.90;99.90
580;DHT22;276;48.392;9.950;2023-05-07T01:30:56;15.90;99.90
580;DHT22;276;48.392;9.950;2023-05-07T01:33:23;15.80;99.90
580;DHT22;276;48.392;9.950;2023-05-07T01:35:53;15.80;99.90
580;DHT22;276;48.392;9.950;2023-05-07T01:38:20;15.80;99.90
580;DHT22;276;48.392;9.950;2023-05-07T01:40:47;15.80;99.90
580;DHT22;276;48.392;9.950;2023-05-07T01:43:13;15.80;99.90
580;DHT22;276;48.392;9.950;2023-05-07T01:45:39;15.80;99.90
580;DHT22;276;48.392;9.950;2023-05-07T01:48:06;15.80;99.90
580;DHT22;276;48.392;9.950;2023-05-07T01:50:35;15.70;99.90
580;DHT22;276;48.392;9.950;2023-05-07T01:53:05;15.70;99.90
580;DHT22;276;48.392;9.950;2023-05-07T01:55:31;15.70;99.90
580;DHT22;276;48.392;9.950;2023-05-07T01:57:59;15.60;99.90
580;DHT22;276;48.392;9.950;2023-05-07T02:00:25;15.60;99.90
580;DHT22;276;48.392;9.950;2023-05-07T02:02:53;15.60;99.90
580;DHT22;276;48.392;9.950;2023-05-07T02:05:21;15.60;99.90
580;DHT22;276;48.392;9.950;2023-05-07T02:07:47;15.60;99.90
580;DHT22;276;48.392;9.950;2023-05-07T02:10:15;15.60;99.90
580;DHT22;276;48.392;9.950;2023-05-07T02:12:41;15.70;99.90
580;DHT22;276;48.392;9.950;2023-05-07T02:15:08;15.60;99.90
580;DHT22;276;48.392;9.950;2023-05-07T02:17:39;15.60;99.90
580;DHT22;276;48.392;9.950;2023-05-07T02:20:05;15.60;99.90
580;DHT22;276;48.392;9.950;2023-05-07T02:22:32;15.60;99.90
580;DHT22;276;48.392;9.950;2023-05-07T02:24:58;15.60;99.90
580;DHT22;276;48.392;9.950;2023-05-07T02:27:23;15.60;99.90
580;DHT22;276;48.392;9.950;2023-05-07T02:29:49;15.50;99.90
580;DHT22;276;48.392;9.950;2023-05-07T02:32:14;15.50;99.90
580;DHT22;276;48.392;9.950;2023-05-07T02:34:40;15.50;99.90
580;DHT22;276;48.392;9.950;2023-05-07T02:37:10;15.50;99.90
580;DHT22;276;48.392;9.950;2023-05-07T02:39:36;15.50;99.90
580;DHT22;276;48.392;9.950;2023-05-07T02:42:02;15.50;99.90
580;DHT22;276;48.392;9.950;2023-05-07T02:44:28;15.50;99.90
580;DHT22;276;48.392;9.950;2023-05-07T02:46:56;15.40;99.90
580;DHT22;276;48.392;9.950;2023-05-07T02:49:22;15.40;99.90
580;DHT22;276;48.392;9.950;2023-05-07T02:51:47;15.40;99.90
580;DHT22;276;48.392;9.950;2023-05-07T02:54:15;15.40;99.90
580;DHT22;276;48.392;9.950;2023-05-07T02:56:41;15.40;99.90
580;DHT22;276;48.392;9.950;2023-05-07T02:59:06;15.30;99.90
580;DHT22;276;48.392;9.950;2023-05-07T03:01:34;15.30;99.90
580;DHT22;276;48.392;9.950;2023-05-07T03:04:00;15.30;99.90
580;DHT22;276;48.392;9.950;2023-05-07T03:06:25;15.30;99.90
580;DHT22;276;48.392;9.950;2023-05-07T03:08:51;15.20;99.90
580;DHT22;276;48.392;9.950;2023-05-07T03:11:17;15.10;99.90
580;DHT22;276;48.392;9.950;2023-05-07T03:13:45;15.10;99.90
580;DHT22;276;48.392;9.950;2023-05-07T03:16:10;15.10;99.90
580;DHT22;276;48.392;9.950;2023-05-07T03:18:39;15.10;99.90
580;DHT22;276;48.392;9.950;2023-05-07T03:21:04;15.10;99.90
580;DHT22;276;48.392;9.950;2023-05-07T03:23:30;15.10;99.90
580;DHT22;276;48.392;9.950;2023-05-07T03:25:55;15.00;99.90
580;DHT22;276;48.392;9.950;2023-05-07T03:28:21;15.00;99.90
580;DHT22;276;48.392;9.950;2023-05-07T03:30:49;15.00;99.90
580;DHT22;276;48.392;9.950;2023-05-07T03:33:15;15.00;99.90
580;DHT22;276;48.392;9.950;2023-05-07T03:35:43;15.00;99.90
580;DHT22;276;48.392;9.950;2023-05-07T03:38:08;15.00;99.90
580;DHT22;276;48.392;9.950;2023-05-07T03:40:34;15.00;99.90
580;DHT22;276;48.392;9.950;2023-05-07T03:43:02;14.90;99.90
580;DHT22;276;48.392;9.950;2023-05-07T03:45:30;14.90;99.90
580;DHT22;276;48.392;9.950;2023-05-07T03:47:58;14.90;99.90
580;DHT22;276;48.392;9.950;2023-05-07T03:50:26;14.80;99.90
580;DHT22;276;48.392;9.950;2023-05-07T03:52:51;14.80;99.90
580;DHT22;276;48.392;9.950;2023-05-07T03:55:17;14.80;99.90
580;DHT22;276;48.392;9.950;2023-05-07T03:57:43;14.70;99.90
580;DHT22;276;48.392;9.950;2023-05-07T04:00:09;14.70;99.90
580;DHT22;276;48.392;9.950;2023-05-07T04:02:37;14.70;99.90
580;DHT22;276;48.392;9.950;2023-05-07T04:05:02;14.70;99.90
580;DHT22;276;48.392;9.950;2023-05-07T04:07:31;14.70;99.90
580;DHT22;276;48.392;9.950;2023-05-07T04:09:58;14.70;99.90
580;DHT22;276;48.392;9.950;2023-05-07T04:12:26;14.70;99.90
580;DHT22;276;48.392;9.950;2023-05-07T04:14:56;14.70;99.90
580;DHT22;276;48.392;9.950;2023-05-07T04:17:22;14.70;99.90
580;DHT22;276;48.392;9.950;2023-05-07T04:19:47;14.70;99.90
580;DHT22;276;48.392;9.950;2023-05-07T04:22:13;14.70;99.90
580;DHT22;276;48.392;9.950;2023-05-07T04:24:39;14.70;99.90
580;DHT22;276;48.392;9.950;2023-05-07T04:27:04;14.70;99.90
580;DHT22;276;48.392;9.950;2023-05-07T04:29:31;14.70;99.90
580;DHT22;276;48.392;9.950;2023-05-07T04:31:57;14.80;99.90
580;DHT22;276;48.392;9.950;2023-05-07T04:34:24;14.80;99.90
580;DHT22;276;48.392;9.950;2023-05-07T04:36:49;14.80;99.90
580;DHT22;276;48.392;9.950;2023-05-07T04:39:15;14.80;99.90
580;DHT22;276;48.392;9.950;2023-05-07T04:41:41;14.80;99.90
580;DHT22;276;48.392;9.950;2023-05-07T04:44:07;14.80;99.90
580;DHT22;276;48.392;9.950;2023-05-07T04:46:32;14.80;99.90
580;DHT22;276;48.392;9.950;2023-05-07T04:49:00;14.80;99.90
580;DHT22;276;48.392;9.950;2023-05-07T04:51:26;14.80;99.90
580;DHT22;276;48.392;9.950;2023-05-07T04:53:51;14.80;99.90
580;DHT22;276;48.392;9.950;2023-05-07T04:56:19;14.80;99.90
580;DHT22;276;48.392;9.950;2023-05-07T04:58:45;14.80;99.90
580;DHT22;276;48.392;9.950;2023-05-07T05:01:11;14.90;99.90
580;DHT22;276;48.392;9.950;2023-05-07T05:03:39;14.90;99.90
580;DHT22;276;48.392;9.950;2023-05-07T05:06:07;14.90;99.90
580;DHT22;276;48.392;9.950;2023-05-07T05:08:35;15.00;99.90
580;DHT22;276;48.392;9.950;2023-05-07T05:11:01;15.10;99.90
580;DHT22;276;48.392;9.950;2023-05-07T05:13:27;15.10;99.90
580;DHT22;276;48.392;9.950;2023-05-07T05:15:53;15.20;99.90
580;DHT22;276;48.392;9.950;2023-05-07T05:18:24;15.20;99.90
580;DHT22;276;48.392;9.950;2023-05-07T05:20:51;15.30;99.90
580;DHT22;276;48.392;9.950;2023-05-07T05:23:19;15.40;99.90
580;DHT22;276;48.392;9.950;2023-05-07T05:25:45;15.40;99.90
580;DHT22;276;48.392;9.950;2023-05-07T05:28:11;15.50;99.90
580;DHT22;276;48.392;9.950;2023-05-07T05:30:39;15.50;99.90
580;DHT22;276;48.392;9.950;2023-05-07T05:33:05;15.60;99.90
580;DHT22;276;48.392;9.950;2023-05-07T05:35:30;15.70;99.90
580;DHT22;276;48.392;9.950;2023-05-07T05:37:57;15.80;99.90
580;DHT22;276;48.392;9.950;2023-05-07T05:40:22;15.90;99.90
580;DHT22;276;48.392;9.950;2023-05-07T05:42:48;16.00;99.90
580;DHT22;276;48.392;9.950;2023-05-07T05:45:14;16.10;99.90
580;DHT22;276;48.392;9.950;2023-05-07T05:47:41;16.20;99.90
580;DHT22;276;48.392;9.950;2023-05-07T05:50:07;16.30;99.90
580;DHT22;276;48.392;9.950;2023-05-07T05:52:32;16.40;99.90
580;DHT22;276;48.392;9.950;2023-05-07T05:54:58;16.50;99.90
580;DHT22;276;48.392;9.950;2023-05-07T05:57:28;16.50;99.90
580;DHT22;276;48.392;9.950;2023-05-07T05:59:54;16.60;99.90
580;DHT22;276;48.392;9.950;2023-05-07T06:02:22;16.70;99.90
580;DHT22;276;48.392;9.950;2023-05-07T06:04:50;16.80;99.90
580;DHT22;276;48.392;9.950;2023-05-07T06:07:16;16.90;99.90
580;DHT22;276;48.392;9.950;2023-05-07T06:09:41;17.00;99.90
580;DHT22;276;48.392;9.950;2023-05-07T06:12:07;17.10;99.90
580;DHT22;276;48.392;9.950;2023-05-07T06:14:33;17.20;99.90
580;DHT22;276;48.392;9.950;2023-05-07T06:16:58;17.30;99.90
580;DHT22;276;48.392;9.950;2023-05-07T06:19:24;17.30;99.90
580;DHT22;276;48.392;9.950;2023-05-07T06:21:51;17.50;99.90
580;DHT22;276;48.392;9.950;2023-05-07T06:24:17;17.50;99.90
580;DHT22;276;48.392;9.950;2023-05-07T06:26:47;17.60;99.90
580;DHT22;276;48.392;9.950;2023-05-07T06:29:18;17.80;99.90
580;DHT22;276;48.392;9.950;2023-05-07T06:31:46;17.90;99.90
580;DHT22;276;48.392;9.950;2023-05-07T06:34:11;18.00;99.90
580;DHT22;276;48.392;9.950;2023-05-07T06:36:40;18.00;99.90
580;DHT22;276;48.392;9.950;2023-05-07T06:39:08;18.10;99.90
580;DHT22;276;48.392;9.950;2023-05-07T06:41:33;18.20;99.90
580;DHT22;276;48.392;9.950;2023-05-07T06:44:01;18.20;99.90
580;DHT22;276;48.392;9.950;2023-05-07T06:46:27;18.40;99.90
580;DHT22;276;48.392;9.950;2023-05-07T06:48:53;18.50;99.90
580;DHT22;276;48.392;9.950;2023-05-07T06:51:18;18.50;99.90
580;DHT22;276;48.392;9.950;2023-05-07T06:53:46;18.50;99.90
580;DHT22;276;48.392;9.950;2023-05-07T06:56:12;18.60;99.90
580;DHT22;276;48.392;9.950;2023-05-07T06:58:37;18.70;99.90
580;DHT22;276;48.392;9.950;2023-05-07T07:01:05;18.80;99.90
580;DHT22;276;48.392;9.950;2023-05-07T07:03:31;18.90;99.90
580;DHT22;276;48.392;9.950;2023-05-07T07:05:57;19.00;99.90
580;DHT22;276;48.392;9.950;2023-05-07T07:08:24;19.00;99.90
580;DHT22;276;48.392;9.950;2023-05-07T07:10:52;19.10;99.90
580;DHT22;276;48.392;9.950;2023-05-07T07:13:20;19.30;99.90
580;DHT22;276;48.392;9.950;2023-05-07T07:15:46;19.40;99.90
580;DHT22;276;48.392;9.950;2023-05-07T07:18:13;19.40;99.90
580;DHT22;276;48.392;9.950;2023-05-07T07:20:39;19.50;99.90
580;DHT22;276;48.392;9.950;2023-05-07T07:23:05;19.60;99.90
580;DHT22;276;48.392;9.950;2023-05-07T07:25:30;19.70;99.90
580;DHT22;276;48.392;9.950;2023-05-07T07:27:56;19.80;99.90
580;DHT22;276;48.392;9.950;2023-05-07T07:30:22;19.80;99.90
580;DHT22;276;48.392;9.950;2023-05-07T07:32:50;19.90;99.90
580;DHT22;276;48.392;9.950;2023-05-07T07:35:18;19.90;99.90
580;DHT22;276;48.392;9.950;2023-05-07T07:37:43;20.00;99.90
580;DHT22;276;48.392;9.950;2023-05-07T07:40:11;20.00;99.90
580;DHT22;276;48.392;9.950;2023-05-07T07:42:40;20.10;99.90
580;DHT22;276;48.392;9.950;2023-05-07T07:45:09;20.20;99.90
580;DHT22;276;48.392;9.950;2023-05-07T07:47:38;20.30;99.90
580;DHT22;276;48.392;9.950;2023-05-07T07:50:04;20.40;99.90
580;DHT22;276;48.392;9.950;2023-05-07T07:52:29;20.40;99.90
580;DHT22;276;48.392;9.950;2023-05-07T07:54:55;20.50;99.90
580;DHT22;276;48.392;9.950;2023-05-07T07:57:21;20.60;99.90
580;DHT22;276;48.392;9.950;2023-05-07T07:59:46;20.70;99.90
580;DHT22;276;48.392;9.950;2023-05-07T08:02:12;20.80;99.90
580;DHT22;276;48.392;9.950;2023-05-07T08:04:37;20.90;99.90
580;DHT22;276;48.392;9.950;2023-05-07T08:07:03;21.00;99.90
580;DHT22;276;48.392;9.950;2023-05-07T08:09:29;21.10;99.90
580;DHT22;276;48.392;9.950;2023-05-07T08:11:54;21.20;99.90
580;DHT22;276;48.392;9.950;2023-05-07T08:14:20;21.30;99.90
580;DHT22;276;48.392;9.950;2023-05-07T08:16:46;21.30;99.90
580;DHT22;276;48.392;9.950;2023-05-07T08:19:11;21.30;99.90
580;DHT22;276;48.392;9.950;2023-05-07T08:21:39;21.40;99.90
580;DHT22;276;48.392;9.950;2023-05-07T08:24:05;21.40;99.90
580;DHT22;276;48.392;9.950;2023-05-07T08:26:31;21.30;99.90
580;DHT22;276;48.392;9.950;2023-05-07T08:28:59;21.30;99.90
580;DHT22;276;48.392;9.950;2023-05-07T08:31:27;21.40;99.90
580;DHT22;276;48.392;9.950;2023-05-07T08:33:52;21.50;99.90
580;DHT22;276;48.392;9.950;2023-05-07T08:36:20;21.60;99.90
580;DHT22;276;48.392;9.950;2023-05-07T08:38:46;21.70;99.90
580;DHT22;276;48.392;9.950;2023-05-07T08:41:11;21.70;99.90
580;DHT22;276;48.392;9.950;2023-05-07T08:43:38;21.80;99.90
580;DHT22;276;48.392;9.950;2023-05-07T08:46:05;21.80;99.90
580;DHT22;276;48.392;9.950;2023-05-07T08:48:34;21.90;99.90
580;DHT22;276;48.392;9.950;2023-05-07T08:51:00;21.90;99.90
580;DHT22;276;48.392;9.950;2023-05-07T08:53:26;21.90;99.90
580;DHT22;276;48.392;9.950;2023-05-07T08:55:55;21.90;99.90
580;DHT22;276;48.392;9.950;2023-05-07T08:58:20;22.00;99.90
580;DHT22;276;48.392;9.950;2023-05-07T09:00:46;22.00;99.90
580;DHT22;276;48.392;9.950;2023-05-07T09:03:12;22.10;99.90
580;DHT22;276;48.392;9.950;2023-05-07T09:05:41;22.00;99.90
580;DHT22;276;48.392;9.950;2023-05-07T09:08:15;22.20;99.90
580;DHT22;276;48.392;9.950;2023-05-07T09:10:41;22.30;99.90
580;DHT22;276;48.392;9.950;2023-05-07T09:13:09;22.40;99.90
580;DHT22;276;48.392;9.950;2023-05-07T09:15:40;22.60;99.90
580;DHT22;276;48.392;9.950;2023-05-07T09:18:09;22.60;99.90
580;DHT22;276;48.392;9.950;2023-05-07T09:20:37;22.60;99.90
580;DHT22;276;48.392;9.950;2023-05-07T09:23:03;22.60;99.90
580;DHT22;276;48.392;9.950;2023-05-07T09:25:33;22.60;99.90
580;DHT22;276;48.392;9.950;2023-05-07T09:28:02;22.80;99.90
580;DHT22;276;48.392;9.950;2023-05-07T09:30:32;22.90;99.90
580;DHT22;276;48.392;9.950;2023-05-07T09:32:58;22.90;99.90
580;DHT22;276;48.392;9.950;2023-05-07T09:35:27;22.90;99.90
580;DHT22;276;48.392;9.950;2023-05-07T09:37:53;23.00;99.90
580;DHT22;276;48.392;9.950;2023-05-07T09:40:25;23.10;99.90
580;DHT22;276;48.392;9.950;2023-05-07T09:42:52;23.20;99.90
580;DHT22;276;48.392;9.950;2023-05-07T09:45:30;23.40;99.90
580;DHT22;276;48.392;9.950;2023-05-07T09:48:00;23.50;99.60
580;DHT22;276;48.392;9.950;2023-05-07T09:50:35;23.50;99.30
580;DHT22;276;48.392;9.950;2023-05-07T09:53:03;23.50;99.00
580;DHT22;276;48.392;9.950;2023-05-07T09:55:29;23.50;98.90
580;DHT22;276;48.392;9.950;2023-05-07T09:57:57;23.50;98.80
580;DHT22;276;48.392;9.950;2023-05-07T10:00:28;23.60;98.90
580;DHT22;276;48.392;9.950;2023-05-07T10:02:56;23.70;99.30
580;DHT22;276;48.392;9.950;2023-05-07T10:05:22;23.80;99.20
580;DHT22;276;48.392;9.950;2023-05-07T10:07:52;24.00;98.90
580;DHT22;276;48.392;9.950;2023-05-07T10:10:18;24.10;99.50
580;DHT22;276;48.392;9.950;2023-05-07T10:12:46;24.20;99.20
580;DHT22;276;48.392;9.950;2023-05-07T10:15:12;24.30;98.40
580;DHT22;276;48.392;9.950;2023-05-07T10:17:40;24.30;98.70
580;DHT22;276;48.392;9.950;2023-05-07T10:20:06;24.40;98.70
580;DHT22;276;48.392;9.950;2023-05-07T10:22:38;24.40;98.20
580;DHT22;276;48.392;9.950;2023-05-07T10:25:08;24.50;96.70
580;DHT22;276;48.392;9.950;2023-05-07T10:27:36;24.50;96.60
580;DHT22;276;48.392;9.950;2023-05-07T10:32:49;24.50;95.70
580;DHT22;276;48.392;9.950;2023-05-07T10:35:21;24.40;95.90
580;DHT22;276;48.392;9.950;2023-05-07T10:37:48;24.40;95.00
580;DHT22;276;48.392;9.950;2023-05-07T10:40:16;24.40;94.90
580;DHT22;276;48.392;9.950;2023-05-07T10:45:25;24.50;95.30
580;DHT22;276;48.392;9.950;2023-05-07T10:50:39;24.50;95.00
580;DHT22;276;48.392;9.950;2023-05-07T10:55:47;24.60;95.70
580;DHT22;276;48.392;9.950;2023-05-07T10:58:31;24.70;95.90
580;DHT22;276;48.392;9.950;2023-05-07T11:01:00;24.70;96.00
580;DHT22;276;48.392;9.950;2023-05-07T11:03:26;24.60;95.30
580;DHT22;276;48.392;9.950;2023-05-07T11:06:11;24.60;94.80
580;DHT22;276;48.392;9.950;2023-05-07T11:08:56;24.50;95.20
580;DHT22;276;48.392;9.950;2023-05-07T11:14:10;24.60;95.80
580;DHT22;276;48.392;9.950;2023-05-07T11:16:36;24.60;96.10
580;DHT22;276;48.392;9.950;2023-05-07T11:19:07;24.70;96.00
580;DHT22;276;48.392;9.950;2023-05-07T11:21:42;24.70;95.50
580;DHT22;276;48.392;9.950;2023-05-07T11:24:11;24.60;95.20
580;DHT22;276;48.392;9.950;2023-05-07T11:26:47;24.40;95.60
580;DHT22;276;48.392;9.950;2023-05-07T11:29:20;24.30;96.10
580;DHT22;276;48.392;9.950;2023-05-07T11:31:52;24.30;96.60
580;DHT22;276;48.392;9.950;2023-05-07T11:34:25;24.30;96.90
580;DHT22;276;48.392;9.950;2023-05-07T11:36:53;24.20;96.60
580;DHT22;276;48.392;9.950;2023-05-07T11:39:27;24.10;96.60
580;DHT22;276;48.392;9.950;2023-05-07T11:41:56;24.00;96.60
580;DHT22;276;48.392;9.950;2023-05-07T11:44:22;24.00;96.60
580;DHT22;276;48.392;9.950;2023-05-07T11:46:50;24.00;96.60
580;DHT22;276;48.392;9.950;2023-05-07T11:49:16;23.90;96.70
580;DHT22;276;48.392;9.950;2023-05-07T11:51:44;23.80;96.60
580;DHT22;276;48.392;9.950;2023-05-07T11:54:11;23.80;96.80
580;DHT22;276;48.392;9.950;2023-05-07T11:56:43;23.70;96.40
580;DHT22;276;48.392;9.950;2023-05-07T11:59:09;23.70;96.60
580;DHT22;276;48.392;9.950;2023-05-07T12:01:35;23.60;96.80
580;DHT22;276;48.392;9.950;2023-05-07T12:04:05;23.60;96.80
580;DHT22;276;48.392;9.950;2023-05-07T12:06:36;23.60;97.20
580;DHT22;276;48.392;9.950;2023-05-07T12:09:03;23.50;96.80
580;DHT22;276;48.392;9.950;2023-05-07T12:11:29;23.40;96.90
580;DHT22;276;48.392;9.950;2023-05-07T12:13:57;23.40;97.10
580;DHT22;276;48.392;9.950;2023-05-07T12:16:23;23.40;97.20
580;DHT22;276;48.392;9.950;2023-05-07T12:18:48;23.40;97.40
580;DHT22;276;48.392;9.950;2023-05-07T12:21:15;23.40;97.10
580;DHT22;276;48.392;9.950;2023-05-07T12:23:44;23.40;96.90
580;DHT22;276;48.392;9.950;2023-05-07T12:26:10;23.40;97.00
580;DHT22;276;48.392;9.950;2023-05-07T12:28:37;23.40;96.70
580;DHT22;276;48.392;9.950;2023-05-07T12:31:04;23.40;96.80
580;DHT22;276;48.392;9.950;2023-05-07T12:33:30;23.50;97.00
580;DHT22;276;48.392;9.950;2023-05-07T12:36:02;23.50;97.00
580;DHT22;276;48.392;9.950;2023-05-07T12:38:36;23.40;96.20
580;DHT22;276;48.392;9.950;2023-05-07T12:41:03;23.40;96.20
580;DHT22;276;48.392;9.950;2023-05-07T12:43:29;23.50;96.60
580;DHT22;276;48.392;9.950;2023-05-07T12:45:56;23.50;96.20
580;DHT22;276;48.392;9.950;2023-05-07T12:48:25;23.40;96.10
580;DHT22;276;48.392;9.950;2023-05-07T12:50:56;23.30;95.30
580;DHT22;276;48.392;9.950;2023-05-07T12:53:24;23.20;95.50
580;DHT22;276;48.392;9.950;2023-05-07T12:55:55;23.30;95.60
580;DHT22;276;48.392;9.950;2023-05-07T12:58:31;23.30;95.40
580;DHT22;276;48.392;9.950;2023-05-07T13:00:59;23.40;95.50
580;DHT22;276;48.392;9.950;2023-05-07T13:05:52;23.40;94.70
580;DHT22;276;48.392;9.950;2023-05-07T13:08:29;23.30;94.90
580;DHT22;276;48.392;9.950;2023-05-07T13:11:01;23.40;95.30
580;DHT22;276;48.392;9.950;2023-05-07T13:13:32;23.40;95.20
580;DHT22;276;48.392;9.950;2023-05-07T13:16:01;23.40;95.20
580;DHT22;276;48.392;9.950;2023-05-07T13:18:29;23.40;95.10
580;DHT22;276;48.392;9.950;2023-05-07T13:20:55;23.40;94.70
580;DHT22;276;48.392;9.950;2023-05-07T13:23:21;23.30;94.40
580;DHT22;276;48.392;9.950;2023-05-07T13:25:48;23.30;94.50
580;DHT22;276;48.392;9.950;2023-05-07T13:28:14;23.30;94.60
580;DHT22;276;48.392;9.950;2023-05-07T13:30:40;23.20;94.50
580;DHT22;276;48.392;9.950;2023-05-07T13:33:08;23.20;94.50
580;DHT22;276;48.392;9.950;2023-05-07T13:35:34;23.20;94.60
580;DHT22;276;48.392;9.950;2023-05-07T13:38:02;23.20;94.70
580;DHT22;276;48.392;9.950;2023-05-07T13:40:30;23.10;94.60
580;DHT22;276;48.392;9.950;2023-05-07T13:42:57;23.10;94.60
580;DHT22;276;48.392;9.950;2023-05-07T13:45:26;23.00;94.50
580;DHT22;276;48.392;9.950;2023-05-07T13:47:52;23.00;94.60
580;DHT22;276;48.392;9.950;2023-05-07T13:50:20;23.00;94.60
580;DHT22;276;48.392;9.950;2023-05-07T13:52:45;23.10;94.50
580;DHT22;276;48.392;9.950;2023-05-07T13:55:18;23.10;94.60
580;DHT22;276;48.392;9.950;2023-05-07T13:57:44;23.10;94.50
580;DHT22;276;48.392;9.950;2023-05-07T14:00:13;23.20;94.60
580;DHT22;276;48.392;9.950;2023-05-07T14:02:39;23.20;94.40
580;DHT22;276;48.392;9.950;2023-05-07T14:05:05;23.20;94.30
580;DHT22;276;48.392;9.950;2023-05-07T14:07:31;23.20;94.10
580;DHT22;276;48.392;9.950;2023-05-07T14:09:59;23.20;94.00
580;DHT22;276;48.392;9.950;2023-05-07T14:12:27;23.20;94.10
580;DHT22;276;48.392;9.950;2023-05-07T14:14:55;23.10;94.00
580;DHT22;276;48.392;9.950;2023-05-07T14:17:21;23.10;94.20
580;DHT22;276;48.392;9.950;2023-05-07T14:19:48;23.10;94.10
580;DHT22;276;48.392;9.950;2023-05-07T14:22:14;23.10;94.20
580;DHT22;276;48.392;9.950;2023-05-07T14:24:40;23.10;94.30
580;DHT22;276;48.392;9.950;2023-05-07T14:27:06;23.10;94.20
580;DHT22;276;48.392;9.950;2023-05-07T14:29:32;23.10;94.10
580;DHT22;276;48.392;9.950;2023-05-07T14:31:58;23.00;94.10
580;DHT22;276;48.392;9.950;2023-05-07T14:34:25;23.00;94.10
580;DHT22;276;48.392;9.950;2023-05-07T14:36:53;22.90;94.30
580;DHT22;276;48.392;9.950;2023-05-07T14:39:19;22.90;94.50
580;DHT22;276;48.392;9.950;2023-05-07T14:41:45;22.80;94.60
580;DHT22;276;48.392;9.950;2023-05-07T14:44:12;22.70;94.60
580;DHT22;276;48.392;9.950;2023-05-07T14:46:40;22.70;94.80
580;DHT22;276;48.392;9.950;2023-05-07T14:49:06;22.70;94.80
580;DHT22;276;48.392;9.950;2023-05-07T14:51:32;22.60;94.90
580;DHT22;276;48.392;9.950;2023-05-07T14:54:00;22.60;94.50
580;DHT22;276;48.392;9.950;2023-05-07T14:56:29;22.50;94.60
580;DHT22;276;48.392;9.950;2023-05-07T14:58:54;22.50;94.60
580;DHT22;276;48.392;9.950;2023-05-07T15:01:22;22.40;94.40
580;DHT22;276;48.392;9.950;2023-05-07T15:03:48;22.40;94.50
580;DHT22;276;48.392;9.950;2023-05-07T15:06:16;22.30;94.50
580;DHT22;276;48.392;9.950;2023-05-07T15:08:41;22.30;94.60
580;DHT22;276;48.392;9.950;2023-05-07T15:11:07;22.30;95.00
580;DHT22;276;48.392;9.950;2023-05-07T15:13:35;22.30;94.80
580;DHT22;276;48.392;9.950;2023-05-07T15:16:00;22.20;94.80
580;DHT22;276;48.392;9.950;2023-05-07T15:18:26;22.20;95.00
580;DHT22;276;48.392;9.950;2023-05-07T15:20:51;22.20;95.20
580;DHT22;276;48.392;9.950;2023-05-07T15:23:20;22.20;95.30
580;DHT22;276;48.392;9.950;2023-05-07T15:25:45;22.20;95.50
580;DHT22;276;48.392;9.950;2023-05-07T15:28:11;22.10;95.70
580;DHT22;276;48.392;9.950;2023-05-07T15:30:36;22.10;95.80
580;DHT22;276;48.392;9.950;2023-05-07T15:33:02;22.00;96.30
580;DHT22;276;48.392;9.950;2023-05-07T15:35:30;22.00;96.20
580;DHT22;276;48.392;9.950;2023-05-07T15:37:59;22.00;96.70
580;DHT22;276;48.392;9.950;2023-05-07T15:40:24;21.90;97.30
580;DHT22;276;48.392;9.950;2023-05-07T15:42:54;21.90;97.70
580;DHT22;276;48.392;9.950;2023-05-07T15:45:23;21.80;98.20
580;DHT22;276;48.392;9.950;2023-05-07T15:47:51;21.70;98.50
580;DHT22;276;48.392;9.950;2023-05-07T15:50:17;21.60;99.00
580;DHT22;276;48.392;9.950;2023-05-07T15:52:43;21.40;99.90
580;DHT22;276;48.392;9.950;2023-05-07T15:55:12;21.30;99.90
580;DHT22;276;48.392;9.950;2023-05-07T15:57:39;21.20;99.90
580;DHT22;276;48.392;9.950;2023-05-07T16:00:05;21.00;99.90
580;DHT22;276;48.392;9.950;2023-05-07T16:02:33;20.90;99.90
580;DHT22;276;48.392;9.950;2023-05-07T16:05:01;20.80;99.90
580;DHT22;276;48.392;9.950;2023-05-07T16:07:27;20.50;99.90
580;DHT22;276;48.392;9.950;2023-05-07T16:09:53;20.20;99.90
580;DHT22;276;48.392;9.950;2023-05-07T16:12:18;19.90;99.90
580;DHT22;276;48.392;9.950;2023-05-07T16:14:44;19.70;99.90
580;DHT22;276;48.392;9.950;2023-05-07T16:17:12;19.30;99.90
580;DHT22;276;48.392;9.950;2023-05-07T16:19:40;19.10;99.90
580;DHT22;276;48.392;9.950;2023-05-07T16:22:05;18.90;99.90
580;DHT22;276;48.392;9.950;2023-05-07T16:24:31;18.80;99.90
580;DHT22;276;48.392;9.950;2023-05-07T16:26:57;18.60;99.90
580;DHT22;276;48.392;9.950;2023-05-07T16:29:25;18.50;99.90
580;DHT22;276;48.392;9.950;2023-05-07T16:31:52;18.40;99.90
580;DHT22;276;48.392;9.950;2023-05-07T16:34:18;18.20;99.90
580;DHT22;276;48.392;9.950;2023-05-07T16:36:44;18.10;99.90
580;DHT22;276;48.392;9.950;2023-05-07T16:39:10;18.00;99.90
580;DHT22;276;48.392;9.950;2023-05-07T16:41:35;18.00;99.90
580;DHT22;276;48.392;9.950;2023-05-07T16:44:03;18.10;99.90
580;DHT22;276;48.392;9.950;2023-05-07T16:46:29;18.10;99.90
580;DHT22;276;48.392;9.950;2023-05-07T16:48:54;18.20;99.90